createdAt,value
2017-10-20T00:00:16.477Z,100010
2017-10-20T00:05:19.702Z,100015
2017-10-20T00:10:23.672Z,100012
2017-10-20T00:15:26.895Z,100014
2017-10-20T00:20:30.094Z,100026
2017-10-20T00:25:33.278Z,100019
2017-10-20T00:30:36.500Z,100016
2017-10-20T00:35:39.695Z,100012
2017-10-20T00:40:42.934Z,100029
2017-10-20T00:45:46.125Z,100019
2017-10-20T00:50:49.333Z,100026
2017-10-20T00:55:52.523Z,100031
2017-10-20T01:00:55.720Z,100028
2017-10-20T01:05:58.878Z,100028
2017-10-20T01:11:02.072Z,100029
2017-10-20T01:16:05.385Z,100014
2017-10-20T01:21:08.696Z,100009
2017-10-20T01:26:11.893Z,100002
2017-10-20T01:31:15.098Z,100003
2017-10-20T01:36:18.317Z,100002
2017-10-20T01:41:21.489Z,100006
2017-10-20T01:46:24.729Z,100014
2017-10-20T01:51:27.905Z,100019
2017-10-20T01:56:31.083Z,100014
2017-10-20T02:01:35.033Z,100014
2017-10-20T02:06:38.218Z,99998
2017-10-20T02:11:41.399Z,100006
2017-10-20T02:16:44.600Z,99993
2017-10-20T02:21:47.777Z,100002
2017-10-20T02:26:50.961Z,99991
2017-10-20T02:31:54.186Z,99988
2017-10-20T02:36:57.402Z,99981
2017-10-20T02:42:00.558Z,99974
2017-10-20T02:47:04.490Z,99975
2017-10-20T02:52:07.662Z,99978
2017-10-20T02:57:10.858Z,99983
2017-10-20T03:02:14.045Z,99973
2017-10-20T03:07:17.280Z,99968
2017-10-20T03:12:20.474Z,99964
2017-10-20T03:17:23.681Z,99962
2017-10-20T03:22:27.046Z,99955
2017-10-20T03:27:30.234Z,99953
2017-10-20T03:32:34.194Z,99949
2017-10-20T03:37:37.378Z,99961
2017-10-20T03:42:40.560Z,99966
2017-10-20T03:47:44.519Z,99954
2017-10-20T03:52:47.724Z,99949
2017-10-20T03:57:50.892Z,99954
2017-10-20T04:02:54.878Z,99969
2017-10-20T04:07:58.042Z,99961
2017-10-20T04:13:02.001Z,99965
2017-10-20T04:18:05.185Z,99962
2017-10-20T04:23:08.394Z,99967
2017-10-20T04:28:11.635Z,99970
2017-10-20T04:33:14.808Z,99964
2017-10-20T04:38:18.013Z,99968
2017-10-20T04:43:21.177Z,99972
2017-10-20T04:48:24.420Z,99952
2017-10-20T04:53:27.591Z,99968
2017-10-20T04:58:30.770Z,99955
2017-10-20T05:03:33.949Z,99978
2017-10-20T05:08:37.132Z,99958
2017-10-20T05:13:41.092Z,99961
2017-10-20T05:18:44.269Z,99958
2017-10-20T05:23:47.436Z,99962
2017-10-20T05:28:50.651Z,99963
2017-10-20T05:33:53.844Z,99953
2017-10-20T05:38:57.005Z,99952
2017-10-20T05:44:00.184Z,99963
2017-10-20T05:49:04.141Z,99968
2017-10-20T05:54:07.313Z,99978
2017-10-20T05:59:11.262Z,99978
2017-10-20T06:04:14.456Z,99993
2017-10-20T06:09:18.397Z,99996
2017-10-20T06:14:21.585Z,99991
2017-10-20T06:19:25.547Z,99986
2017-10-20T06:24:28.746Z,99990
2017-10-20T06:29:31.916Z,99992
2017-10-20T06:34:35.866Z,99984
2017-10-20T06:39:39.057Z,99988
2017-10-20T06:44:42.397Z,100023
2017-10-20T06:49:45.577Z,100045
2017-10-20T06:54:48.777Z,100043
2017-10-20T06:59:52.754Z,100035
2017-10-20T07:04:55.926Z,100048
2017-10-20T07:09:59.130Z,100055
2017-10-20T07:15:02.298Z,100057
2017-10-20T07:20:20.293Z,100057
2017-10-20T07:25:23.490Z,100055
2017-10-20T07:30:26.666Z,100061
2017-10-20T07:35:30.614Z,100078
2017-10-20T07:40:33.834Z,100085
2017-10-20T07:45:37.022Z,100081
2017-10-20T07:50:40.986Z,100079
2017-10-20T07:55:44.164Z,100078
2017-10-20T08:00:47.374Z,100075
2017-10-20T08:05:50.573Z,100064
2017-10-20T08:10:53.826Z,100064
2017-10-20T08:15:57.023Z,100070
2017-10-20T08:21:00.214Z,100082
2017-10-20T08:26:03.420Z,100076
2017-10-20T08:31:06.621Z,100076
2017-10-20T08:36:09.806Z,100078
2017-10-20T08:41:13.774Z,100060
2017-10-20T08:46:16.968Z,100039
2017-10-20T08:51:20.181Z,100041
2017-10-20T08:56:23.375Z,100054
2017-10-20T09:01:26.564Z,100048
2017-10-20T09:06:29.781Z,100046
2017-10-20T09:11:32.977Z,100057
2017-10-20T09:16:36.177Z,100058
2017-10-20T09:21:40.166Z,100066
2017-10-20T09:26:43.394Z,100063
2017-10-20T09:31:46.606Z,100068
2017-10-20T09:36:50.587Z,100059
2017-10-20T09:41:53.871Z,100062
2017-10-20T09:46:57.858Z,100055
2017-10-20T09:52:01.022Z,100042
2017-10-20T09:57:04.598Z,100048
2017-10-20T10:02:08.550Z,100048
2017-10-20T10:07:11.729Z,100048
2017-10-20T10:12:14.946Z,100052
2017-10-20T10:17:18.135Z,100051
2017-10-20T10:22:22.107Z,100050
2017-10-20T10:27:25.290Z,100049
2017-10-20T10:32:28.559Z,100052
2017-10-20T10:37:32.510Z,100045
2017-10-20T10:42:35.721Z,100048
2017-10-20T10:47:38.933Z,100056
2017-10-20T10:52:42.246Z,100050
2017-10-20T10:57:45.467Z,100073
2017-10-20T11:02:48.694Z,100066
2017-10-20T11:08:09.885Z,100083
2017-10-20T11:13:14.990Z,100082
2017-10-20T11:18:18.185Z,100090
2017-10-20T11:23:21.564Z,100114
2017-10-20T11:28:25.594Z,100123
2017-10-20T11:33:28.798Z,100129
2017-10-20T11:38:31.982Z,100125
2017-10-20T11:43:35.177Z,100123
2017-10-20T11:48:39.146Z,100129
2017-10-20T11:53:42.303Z,100144
2017-10-20T11:58:46.254Z,100143
2017-10-20T12:03:49.447Z,100147
2017-10-20T12:08:52.680Z,100163
2017-10-20T12:13:55.873Z,100155
2017-10-20T12:18:59.260Z,100141
2017-10-20T12:24:03.217Z,100149
2017-10-20T12:29:06.401Z,100164
2017-10-20T12:34:09.630Z,100184
2017-10-20T12:39:13.861Z,100175
2017-10-20T12:44:17.086Z,100168
2017-10-20T12:49:20.297Z,100154
2017-10-20T12:54:23.483Z,100156
2017-10-20T12:59:26.666Z,100147
2017-10-20T13:04:29.835Z,100136
2017-10-20T13:09:33.081Z,100148
2017-10-20T13:14:36.279Z,100148
2017-10-20T13:19:40.250Z,100136
2017-10-20T13:24:43.438Z,100139
2017-10-20T13:29:46.641Z,100143
2017-10-20T13:34:49.843Z,100144
2017-10-20T13:39:53.177Z,100144
2017-10-20T13:44:56.446Z,100131
2017-10-20T13:49:59.699Z,100128
2017-10-20T13:55:02.862Z,100141
2017-10-20T14:00:06.094Z,100151
2017-10-20T14:05:09.307Z,100152
2017-10-20T14:10:14.748Z,100157
2017-10-20T14:15:17.976Z,100155
2017-10-20T14:20:21.171Z,100153
2017-10-20T14:25:24.402Z,100162
2017-10-20T14:30:27.599Z,100169
2017-10-20T14:35:30.806Z,100159
2017-10-20T14:40:34.026Z,100165
2017-10-20T14:45:37.225Z,100173
2017-10-20T14:50:40.573Z,100175
2017-10-20T14:55:44.585Z,100175
2017-10-20T15:00:47.784Z,100185
2017-10-20T15:05:51.041Z,100187
2017-10-20T15:10:54.253Z,100204
2017-10-20T15:15:57.479Z,100201
2017-10-20T15:21:01.495Z,100223
2017-10-20T15:26:04.676Z,100230
2017-10-20T15:31:07.877Z,100232
2017-10-20T15:36:11.997Z,100235
2017-10-20T15:41:15.201Z,100237
2017-10-20T15:46:18.438Z,100229
2017-10-20T15:51:21.695Z,100227
2017-10-20T15:56:25.690Z,100230
2017-10-20T16:01:28.957Z,100229
2017-10-20T16:06:32.173Z,100242
2017-10-20T16:11:35.403Z,100234
2017-10-20T16:16:38.623Z,100244
2017-10-20T16:21:41.841Z,100240
2017-10-20T16:26:45.042Z,100254
2017-10-20T16:31:48.237Z,100256
2017-10-20T16:36:51.430Z,100259
2017-10-20T16:41:54.602Z,100270
2017-10-20T16:46:57.793Z,100275
2017-10-20T16:52:01.787Z,100266
2017-10-20T16:57:05.093Z,100274
2017-10-20T17:02:08.278Z,100280
2017-10-20T17:07:11.455Z,100282
2017-10-20T17:12:14.628Z,100288
2017-10-20T17:17:17.821Z,100299
2017-10-20T17:22:21.008Z,100298
2017-10-20T17:27:24.257Z,100307
2017-10-20T17:32:28.226Z,100298
2017-10-20T17:37:31.447Z,100292
2017-10-20T17:42:34.656Z,100296
2017-10-20T17:47:37.866Z,100296
2017-10-20T17:52:41.082Z,100302
2017-10-20T17:57:44.293Z,100304
2017-10-20T18:02:47.498Z,100314
2017-10-20T18:07:50.673Z,100312
2017-10-20T18:12:53.901Z,100319
2017-10-20T18:17:57.098Z,100331
2017-10-20T18:23:00.309Z,100334
2017-10-20T18:28:03.540Z,100343
2017-10-20T18:33:06.755Z,100339
2017-10-20T18:38:09.990Z,100351
2017-10-20T18:43:14.114Z,100355
2017-10-20T18:48:18.067Z,100353
2017-10-20T18:53:21.265Z,100347
2017-10-20T18:58:24.477Z,100335
2017-10-20T19:03:27.678Z,100345
2017-10-20T19:08:30.896Z,100349
2017-10-20T19:13:34.103Z,100348
2017-10-20T19:18:37.313Z,100365
2017-10-20T19:23:40.478Z,100365
2017-10-20T19:28:44.434Z,100370
2017-10-20T19:33:47.678Z,100377
2017-10-20T19:38:50.904Z,100386
2017-10-20T19:43:54.108Z,100394
2017-10-20T19:48:57.312Z,100394
2017-10-20T19:54:00.565Z,100379
2017-10-20T19:59:03.739Z,100393
2017-10-20T20:04:07.722Z,100406
2017-10-20T20:09:10.915Z,100400
2017-10-20T20:14:14.157Z,100397
2017-10-20T20:19:17.340Z,100404
2017-10-20T20:24:20.517Z,100407
2017-10-20T20:29:23.695Z,100398
2017-10-20T20:34:27.699Z,100399
2017-10-20T20:39:30.897Z,100406
2017-10-20T20:44:34.102Z,100404
2017-10-20T20:49:37.306Z,100421
2017-10-20T20:54:40.511Z,100419
2017-10-20T20:59:43.723Z,100404
2017-10-20T21:04:47.033Z,100409
2017-10-20T21:09:50.226Z,100409
2017-10-20T21:14:53.433Z,100416
2017-10-20T21:19:56.633Z,100415
2017-10-20T21:24:59.958Z,100404
2017-10-20T21:30:03.167Z,100411
2017-10-20T21:35:06.386Z,100398
2017-10-20T21:40:09.582Z,100411
2017-10-20T21:45:12.777Z,100402
2017-10-20T21:50:15.973Z,100400
2017-10-20T21:55:19.166Z,100402
2017-10-20T22:00:22.376Z,100390
2017-10-20T22:05:25.557Z,100381
2017-10-20T22:10:28.802Z,100396
2017-10-20T22:15:31.996Z,100378
2017-10-20T22:20:35.200Z,100393
2017-10-20T22:25:38.371Z,100391
2017-10-20T22:30:42.466Z,100404
2017-10-20T22:35:45.673Z,100409
2017-10-20T22:40:48.844Z,100408
2017-10-20T22:45:52.054Z,100406
2017-10-20T22:50:55.235Z,100408
2017-10-20T22:55:59.260Z,100407
2017-10-20T23:01:03.195Z,100404
2017-10-20T23:06:06.430Z,100416
2017-10-20T23:11:09.622Z,100418
2017-10-20T23:16:12.827Z,100419
2017-10-20T23:21:16.030Z,100424
2017-10-20T23:26:19.294Z,100423
2017-10-20T23:31:22.479Z,100414
2017-10-20T23:36:25.695Z,100411
2017-10-20T23:41:28.882Z,100411
2017-10-20T23:46:32.064Z,100416
2017-10-20T23:51:35.253Z,100426
2017-10-20T23:56:38.470Z,100427
